Time;durP1;ratioP1;P1;durP2;ratioP2;P2;SDS_P1;SDS_P2;PMS_P1;PMS_P2;Temp;Humidity;BMP_temperature;BMP_pressure;BME280_temperature;BME280_humidity;BME280_pressure;Samples;Min_cycle;Max_cycle;Signal;HPM_P1;HPM_P2
2023/01/07 00:01:28;;;;;;;17.45;8.13;;;;;;;-145.63;100.00;61273.97;4782951;30;20062;-64
2023/01/07 00:03:55;;;;;;;16.42;8.38;;;;;;;-145.63;100.00;61273.97;4783011;30;20035;-64
2023/01/07 00:06:26;;;;;;;14.27;8.35;;;;;;;-145.63;100.00;61273.97;4782839;30;20042;-63
2023/01/07 00:08:55;;;;;;;13.32;8.10;;;;;;;-145.63;100.00;61273.97;4782685;30;20339;-63
2023/01/07 00:11:27;;;;;;;14.18;8.23;;;;;;;-145.63;100.00;61273.97;4782587;30;20034;-63
2023/01/07 00:13:55;;;;;;;15.05;8.07;;;;;;;-145.63;100.00;61273.97;4782860;30;20035;-62
2023/01/07 00:16:23;;;;;;;16.65;8.18;;;;;;;-145.63;100.00;61273.97;4782337;30;20035;-63
2023/01/07 00:18:50;;;;;;;13.48;7.45;;;;;;;-145.63;100.00;61273.97;4782446;30;20040;-63
2023/01/07 00:21:18;;;;;;;16.02;7.28;;;;;;;-145.63;100.00;61273.97;4782345;30;20063;-62
2023/01/07 00:23:44;;;;;;;16.15;8.48;;;;;;;-145.63;100.00;61273.97;4788838;30;20043;-63
2023/01/07 00:26:20;;;;;;;14.02;7.57;;;;;;;-145.63;100.00;61273.97;4782095;30;20044;-64
2023/01/07 00:28:49;;;;;;;13.77;7.53;;;;;;;-145.63;100.00;61273.97;4782351;30;20027;-63
2023/01/07 00:31:15;;;;;;;13.63;7.00;;;;;;;-145.63;100.00;61273.97;4781099;30;20236;-63
2023/01/07 00:33:52;;;;;;;13.57;8.18;;;;;;;-145.63;100.00;61273.97;4782230;30;20084;-63
2023/01/07 00:36:19;;;;;;;11.15;7.00;;;;;;;-145.63;100.00;61273.97;4781810;30;20211;-63
2023/01/07 00:38:45;;;;;;;14.07;7.95;;;;;;;-145.63;100.00;61273.97;4782104;30;20032;-63
2023/01/07 00:41:10;;;;;;;13.60;7.50;;;;;;;-145.63;100.00;61273.97;4782070;30;20102;-62
2023/01/07 00:43:36;;;;;;;16.25;7.97;;;;;;;-145.63;100.00;61273.97;4782574;30;20035;-64
2023/01/07 00:46:01;;;;;;;17.27;8.18;;;;;;;-145.63;100.00;61273.97;4771055;30;20089;-64
2023/01/07 00:48:27;;;;;;;14.35;7.50;;;;;;;-145.63;100.00;61273.97;4777097;30;20074;-64
2023/01/07 00:50:53;;;;;;;11.82;7.30;;;;;;;-145.63;100.00;61273.97;4782060;30;20044;-63
2023/01/07 00:53:20;;;;;;;13.38;6.90;;;;;;;-145.63;100.00;61273.97;4787039;29;20088;-64
2023/01/07 00:55:47;;;;;;;16.30;7.80;;;;;;;-145.63;100.00;61273.97;4799550;29;20027;-64
2023/01/07 00:58:19;;;;;;;11.82;7.30;;;;;;;-145.63;100.00;61273.97;4781662;30;20100;-63
2023/01/07 01:00:45;;;;;;;14.80;7.32;;;;;;;-145.63;100.00;61273.97;4781820;30;20031;-64
2023/01/07 01:03:11;;;;;;;13.30;7.05;;;;;;;-145.63;100.00;61273.97;4781860;30;20039;-63
2023/01/07 01:05:37;;;;;;;14.00;7.32;;;;;;;-145.63;100.00;61273.97;4780583;30;20031;-64
2023/01/07 01:08:03;;;;;;;12.43;6.95;;;;;;;-145.63;100.00;61273.97;4780876;30;20043;-62
2023/01/07 01:10:29;;;;;;;14.18;6.47;;;;;;;-145.63;100.00;61273.97;4781953;30;20035;-64
2023/01/07 01:12:55;;;;;;;16.15;7.53;;;;;;;-145.63;100.00;61273.97;4782078;30;20047;-63
2023/01/07 01:15:20;;;;;;;12.85;6.97;;;;;;;-145.63;100.00;61273.97;4781446;30;20106;-62
2023/01/07 01:17:46;;;;;;;15.23;7.82;;;;;;;-145.63;100.00;61273.97;4781650;30;20023;-62
2023/01/07 01:20:14;;;;;;;12.40;6.82;;;;;;;-145.63;100.00;61273.97;4781545;30;20039;-63
2023/01/07 01:22:40;;;;;;;13.15;7.60;;;;;;;-145.63;100.00;61273.97;4788142;30;20039;-62
2023/01/07 01:25:07;;;;;;;11.70;6.97;;;;;;;-145.63;100.00;61273.97;4795763;29;20225;-62
2023/01/07 01:27:33;;;;;;;12.00;6.75;;;;;;;-145.63;100.00;61273.97;4795245;30;20038;-64
2023/01/07 01:29:58;;;;;;;12.32;7.68;;;;;;;-145.63;100.00;61273.97;4781476;30;20055;-62
2023/01/07 01:32:25;;;;;;;12.80;7.15;;;;;;;-145.63;100.00;61273.97;4781187;30;20039;-64
2023/01/07 01:34:50;;;;;;;15.15;6.35;;;;;;;-145.63;100.00;61273.97;4781196;30;20042;-63
2023/01/07 01:37:16;;;;;;;11.40;6.43;;;;;;;-145.63;100.00;61273.97;4781098;30;20040;-63
2023/01/07 01:39:42;;;;;;;11.93;5.60;;;;;;;-145.63;100.00;61273.97;4781417;30;20354;-63
2023/01/07 01:42:12;;;;;;;13.20;6.28;;;;;;;-145.63;100.00;61273.97;4781231;30;20027;-63
2023/01/07 01:44:48;;;;;;;11.30;6.07;;;;;;;-145.63;100.00;61273.97;4781217;30;20076;-63
2023/01/07 01:47:47;;;;;;;10.43;6.20;;;;;;;-145.63;100.00;61273.97;4781204;30;20024;-63
2023/01/07 01:50:28;;;;;;;11.15;6.13;;;;;;;-145.63;100.00;61273.97;4781029;30;20047;-63
2023/01/07 01:53:13;;;;;;;;;;;;;;;-145.63;100.00;61273.97;4783506;29;20044;-62
2023/01/07 01:55:47;;;;;;;10.07;5.57;;;;;;;-145.63;100.00;61273.97;4799065;29;19913;-63
2023/01/07 01:58:26;;;;;;;10.75;5.70;;;;;;;-145.63;100.00;61273.97;4785610;30;20031;-64
2023/01/07 02:00:52;;;;;;;9.88;6.20;;;;;;;-145.63;100.00;61273.97;4783368;29;20054;-63
2023/01/07 02:03:20;;;;;;;10.68;5.63;;;;;;;-145.63;100.00;61273.97;4780782;30;20036;-62
2023/01/07 02:05:46;;;;;;;10.25;5.55;;;;;;;-145.63;100.00;61273.97;4780818;30;20035;-63
2023/01/07 02:08:16;;;;;;;11.25;5.82;;;;;;;-145.63;100.00;61273.97;4780792;30;20036;-62
2023/01/07 02:10:41;;;;;;;10.60;5.88;;;;;;;-145.63;100.00;61273.97;4780884;30;20111;-63
2023/01/07 02:13:23;;;;;;;10.98;6.07;;;;;;;-145.63;100.00;61273.97;4780673;30;20032;-65
2023/01/07 02:16:01;;;;;;;10.93;5.95;;;;;;;-145.63;100.00;61273.97;4780683;30;20054;-63
2023/01/07 02:19:02;;;;;;;13.73;6.90;;;;;;;-145.63;100.00;61273.97;4779748;30;20335;-64
2023/01/07 02:21:37;;;;;;;12.63;5.63;;;;;;;-145.63;100.00;61273.97;4768481;30;20328;-62
2023/01/07 02:24:34;;;;;;;13.60;6.28;;;;;;;-145.63;100.00;61273.97;4788314;30;20090;-62
2023/01/07 02:27:18;;;;;;;12.00;6.88;;;;;;;-145.63;100.00;61273.97;4780478;30;20146;-63
2023/01/07 02:30:07;;;;;;;11.10;5.90;;;;;;;-145.63;100.00;61273.97;4780032;30;20069;-63
2023/01/07 02:32:42;;;;;;;11.27;5.72;;;;;;;-145.63;100.00;61273.97;4780283;30;20176;-63
2023/01/07 02:35:32;;;;;;;10.32;6.05;;;;;;;-145.63;100.00;61273.97;4780337;30;20331;-63
2023/01/07 02:38:09;;;;;;;11.00;5.70;;;;;;;-145.63;100.00;61273.97;4794102;30;20051;-63
2023/01/07 02:40:57;;;;;;;13.43;6.50;;;;;;;-145.63;100.00;61273.97;4780281;30;20043;-62
2023/01/07 02:43:25;;;;;;;11.10;5.93;;;;;;;-145.63;100.00;61273.97;4762438;30;20032;-63
2023/01/07 02:46:18;;;;;;;14.35;6.82;;;;;;;-145.63;100.00;61273.97;4777337;30;20351;-62
2023/01/07 02:48:44;;;;;;;10.45;6.10;;;;;;;-145.63;100.00;61273.97;4779881;30;20075;-64
2023/01/07 02:51:10;;;;;;;10.60;5.75;;;;;;;-145.63;100.00;61273.97;4793931;30;20102;-64
2023/01/07 02:53:39;;;;;;;11.65;6.32;;;;;;;-145.63;100.00;61273.97;4787502;29;20344;-63
2023/01/07 02:56:10;;;;;;;10.55;6.28;;;;;;;-145.63;100.00;61273.97;4795202;29;20027;-63
2023/01/07 02:59:17;;;;;;;12.02;5.60;;;;;;;-145.63;100.00;61273.97;4780234;30;20040;-63
2023/01/07 03:02:05;;;;;;;13.68;5.93;;;;;;;-145.63;100.00;61273.97;4762436;30;20039;-62
2023/01/07 03:05:07;;;;;;;11.68;5.60;;;;;;;-145.63;100.00;61273.97;4762351;30;20036;-62
2023/01/07 03:07:54;;;;;;;10.15;5.55;;;;;;;-145.63;100.00;61273.97;4762370;30;20028;-62
2023/01/07 03:10:36;;;;;;;10.00;6.22;;;;;;;-145.63;100.00;61273.97;4762014;30;20040;-63
2023/01/07 03:13:11;;;;;;;11.32;6.00;;;;;;;-145.63;100.00;61273.97;4778188;30;20094;-62
2023/01/07 03:16:06;;;;;;;11.35;6.25;;;;;;;-145.63;100.00;61273.97;4779646;30;20127;-63
2023/01/07 03:18:37;;;;;;;10.30;6.00;;;;;;;-145.63;100.00;61273.97;4776358;30;20043;-64
2023/01/07 03:21:08;;;;;;;11.02;6.32;;;;;;;-145.63;100.00;61273.97;4779962;30;20034;-63
2023/01/07 03:23:38;;;;;;;12.13;5.82;;;;;;;-145.63;100.00;61273.97;4787921;30;20099;-64
2023/01/07 03:26:05;;;;;;;9.90;5.72;;;;;;;-145.63;100.00;61273.97;4779884;30;20044;-63
2023/01/07 03:28:39;;;;;;;12.00;6.05;;;;;;;-145.63;100.00;61273.97;4779846;30;20032;-64
2023/01/07 03:31:10;;;;;;;12.35;6.35;;;;;;;-145.63;100.00;61273.97;4783726;30;20035;-63
2023/01/07 03:33:39;;;;;;;11.80;6.30;;;;;;;-145.63;100.00;61273.97;4783445;30;20042;-63
2023/01/07 03:36:07;;;;;;;10.20;5.97;;;;;;;-145.63;100.00;61273.97;4783594;30;20044;-62
2023/01/07 03:38:36;;;;;;;10.32;5.80;;;;;;;-145.63;100.00;61273.97;4782976;30;20035;-62
2023/01/07 03:41:02;;;;;;;10.63;6.22;;;;;;;-145.63;100.00;61273.97;4783510;30;20036;-63
2023/01/07 03:43:27;;;;;;;13.13;6.63;;;;;;;-145.63;100.00;61273.97;4789975;29;20324;-63
2023/01/07 03:45:56;;;;;;;13.35;6.53;;;;;;;-145.63;100.00;61273.97;4786965;30;20062;-62
2023/01/07 03:48:21;;;;;;;14.73;6.63;;;;;;;-145.63;100.00;61273.97;4792404;30;20047;-64
2023/01/07 03:50:47;;;;;;;11.32;6.15;;;;;;;-145.63;100.00;61273.97;4790870;30;20028;-63
2023/01/07 03:53:13;;;;;;;10.75;6.10;;;;;;;-145.63;100.00;61273.97;4794000;29;20042;-63
2023/01/07 03:55:40;;;;;;;9.13;5.70;;;;;;;-145.63;100.00;61273.97;4785015;30;20051;-62
2023/01/07 03:58:05;;;;;;;11.00;6.22;;;;;;;-145.63;100.00;61273.97;4784317;30;20043;-62
2023/01/07 04:00:31;;;;;;;11.48;6.15;;;;;;;-145.63;100.00;61273.97;4782867;30;20304;-64
2023/01/07 04:02:56;;;;;;;11.55;5.43;;;;;;;-145.63;100.00;61273.97;4781722;30;20073;-63
2023/01/07 04:05:22;;;;;;;11.48;5.88;;;;;;;-145.63;100.00;61273.97;4782781;30;20040;-63
2023/01/07 04:07:48;;;;;;;12.57;6.20;;;;;;;-145.63;100.00;61273.97;4782663;30;20300;-63
2023/01/07 04:10:13;;;;;;;10.25;5.63;;;;;;;-145.63;100.00;61273.97;4782585;30;20261;-63
2023/01/07 04:12:39;;;;;;;8.90;5.63;;;;;;;-145.63;100.00;61273.97;4782831;30;20054;-62
2023/01/07 04:15:06;;;;;;;9.57;5.10;;;;;;;-145.63;100.00;61273.97;4783680;30;20043;-62
2023/01/07 04:17:32;;;;;;;9.75;5.10;;;;;;;-145.63;100.00;61273.97;4790558;29;20035;-62
2023/01/07 04:19:57;;;;;;;10.27;5.70;;;;;;;-145.63;100.00;61273.97;4790102;30;20098;-61
2023/01/07 04:22:23;;;;;;;10.35;6.03;;;;;;;-145.63;100.00;61273.97;4791918;30;20055;-63
2023/01/07 04:24:49;;;;;;;10.50;5.30;;;;;;;-145.63;100.00;61273.97;4787706;30;20074;-63
2023/01/07 04:27:14;;;;;;;10.80;5.25;;;;;;;-145.63;100.00;61273.97;4775326;30;20029;-62
2023/01/07 04:29:40;;;;;;;13.93;5.80;;;;;;;-145.63;100.00;61273.97;4792409;30;20039;-63
2023/01/07 04:32:06;;;;;;;10.55;5.93;;;;;;;-145.63;100.00;61273.97;4799320;29;20347;-62
2023/01/07 04:34:31;;;;;;;10.40;5.82;;;;;;;-145.63;100.00;61273.97;4796255;30;20099;-63
2023/01/07 04:36:57;;;;;;;10.05;5.20;;;;;;;-145.63;100.00;61273.97;4782504;30;20028;-63
2023/01/07 04:39:22;;;;;;;11.45;6.05;;;;;;;-145.63;100.00;61273.97;4782117;30;20091;-62
2023/01/07 04:41:48;;;;;;;9.30;5.63;;;;;;;-145.63;100.00;61273.97;4781398;30;20059;-61
2023/01/07 04:44:16;;;;;;;14.48;6.38;;;;;;;-145.63;100.00;61273.97;4781881;30;20108;-62
2023/01/07 04:46:42;;;;;;;12.27;5.32;;;;;;;-145.63;100.00;61273.97;4782043;30;20047;-62
2023/01/07 04:49:07;;;;;;;10.90;6.18;;;;;;;-145.63;100.00;61273.97;4781967;30;20050;-62
2023/01/07 04:51:33;;;;;;;10.63;5.43;;;;;;;-145.63;100.00;61273.97;4782226;30;20047;-64
2023/01/07 04:53:58;;;;;;;13.02;5.78;;;;;;;-145.63;100.00;61273.97;4792062;29;20227;-62
2023/01/07 04:56:24;;;;;;;9.95;5.97;;;;;;;-145.63;100.00;61273.97;4796721;29;20023;-63
2023/01/07 04:58:50;;;;;;;10.68;5.72;;;;;;;-145.63;100.00;61273.97;4781869;30;20087;-62
2023/01/07 05:01:15;;;;;;;9.10;6.05;;;;;;;-145.63;100.00;61273.97;4781917;30;20039;-64
2023/01/07 05:03:41;;;;;;;14.15;6.53;;;;;;;-145.63;100.00;61273.97;4781962;30;20201;-64
2023/01/07 05:06:08;;;;;;;10.63;6.32;;;;;;;-145.63;100.00;61273.97;4782038;30;20043;-63
2023/01/07 05:08:33;;;;;;;11.20;5.60;;;;;;;-145.63;100.00;61273.97;4781686;30;20192;-63
2023/01/07 05:11:00;;;;;;;9.95;5.40;;;;;;;-145.63;100.00;61273.97;4781705;30;20099;-64
2023/01/07 05:13:26;;;;;;;11.30;5.72;;;;;;;-145.63;100.00;61273.97;4777667;30;20217;-64
2023/01/07 05:15:52;;;;;;;8.88;5.35;;;;;;;-145.63;100.00;61273.97;4777783;30;20106;-63
2023/01/07 05:18:17;;;;;;;11.70;5.75;;;;;;;-145.63;100.00;61273.97;4781544;30;20104;-64
2023/01/07 05:20:46;;;;;;;10.85;6.18;;;;;;;-145.63;100.00;61273.97;4781788;30;20069;-63
2023/01/07 05:23:11;;;;;;;11.98;6.35;;;;;;;-145.63;100.00;61273.97;4790527;30;20031;-64
2023/01/07 05:25:37;;;;;;;10.98;6.05;;;;;;;-145.63;100.00;61273.97;4781529;30;20031;-64
2023/01/07 05:28:02;;;;;;;14.63;5.95;;;;;;;-145.63;100.00;61273.97;4781765;30;20035;-65
2023/01/07 05:30:28;;;;;;;12.82;6.57;;;;;;;-145.63;100.00;61273.97;4779957;30;20039;-65
2023/01/07 05:32:54;;;;;;;12.88;6.13;;;;;;;-145.63;100.00;61273.97;4781411;30;20050;-64
2023/01/07 05:35:19;;;;;;;9.23;5.10;;;;;;;-145.63;100.00;61273.97;4781244;30;20308;-64
2023/01/07 05:37:45;;;;;;;12.02;6.03;;;;;;;-145.63;100.00;61273.97;4781480;30;20031;-64
2023/01/07 05:40:11;;;;;;;9.32;5.22;;;;;;;-145.63;100.00;61273.97;4781098;30;20023;-63
2023/01/07 05:42:37;;;;;;;10.23;5.72;;;;;;;-145.63;100.00;61273.97;4781140;30;20091;-65
2023/01/07 05:45:03;;;;;;;12.70;6.13;;;;;;;-145.63;100.00;61273.97;4782358;30;20039;-65
2023/01/07 05:47:28;;;;;;;11.73;6.82;;;;;;;-145.63;100.00;61273.97;4781851;30;20036;-64
2023/01/07 05:49:54;;;;;;;10.57;5.78;;;;;;;-145.63;100.00;61273.97;4781442;30;20386;-65
2023/01/07 05:52:19;;;;;;;11.60;6.28;;;;;;;-145.63;100.00;61273.97;4780417;30;20047;-64
2023/01/07 05:54:45;;;;;;;12.40;5.65;;;;;;;-145.63;100.00;61273.97;4796354;29;20047;-65
2023/01/07 05:57:10;;;;;;;10.65;6.25;;;;;;;-145.63;100.00;61273.97;4789148;30;20078;-64
2023/01/07 05:59:37;;;;;;;10.15;5.70;;;;;;;-145.63;100.00;61273.97;4780946;30;20043;-65
2023/01/07 06:02:02;;;;;;;12.40;6.28;;;;;;;-145.63;100.00;61273.97;4781381;30;20035;-65
2023/01/07 06:04:28;;;;;;;10.60;5.88;;;;;;;-145.63;100.00;61273.97;4763138;30;20070;-65
2023/01/07 06:06:54;;;;;;;13.48;6.38;;;;;;;-145.63;100.00;61273.97;4776722;30;20043;-64
2023/01/07 06:09:19;;;;;;;13.68;6.45;;;;;;;-145.63;100.00;61273.97;4780437;30;20101;-64
2023/01/07 06:11:45;;;;;;;11.55;5.93;;;;;;;-145.63;100.00;61273.97;4780667;30;20073;-64
2023/01/07 06:14:10;;;;;;;9.93;5.85;;;;;;;-145.63;100.00;61273.97;4780648;30;20073;-65
2023/01/07 06:16:36;;;;;;;10.60;6.43;;;;;;;-145.63;100.00;61273.97;4780688;30;20031;-66
2023/01/07 06:19:02;;;;;;;9.85;5.53;;;;;;;-145.63;100.00;61273.97;4780724;30;20035;-65
2023/01/07 06:21:28;;;;;;;11.23;6.25;;;;;;;-145.63;100.00;61273.97;4780754;30;20046;-64
2023/01/07 06:23:54;;;;;;;12.02;6.38;;;;;;;-145.63;100.00;61273.97;4790207;30;20062;-64
2023/01/07 06:26:20;;;;;;;13.15;6.35;;;;;;;-145.63;100.00;61273.97;4779231;30;20284;-64
2023/01/07 06:28:46;;;;;;;13.13;6.68;;;;;;;-145.63;100.00;61273.97;4780464;30;20038;-65
2023/01/07 06:31:11;;;;;;;11.35;6.68;;;;;;;-145.63;100.00;61273.97;4780382;30;20043;-64
2023/01/07 06:33:39;;;;;;;7.75;5.40;;;;;;;-145.63;100.00;61273.97;4780349;30;20039;-64
2023/01/07 06:36:05;;;;;;;10.85;6.40;;;;;;;-145.63;100.00;61273.97;4780264;30;20036;-64
2023/01/07 06:38:31;;;;;;;11.80;6.38;;;;;;;-145.63;100.00;61273.97;4780299;30;20043;-64
2023/01/07 06:41:01;;;;;;;11.13;6.38;;;;;;;-145.63;100.00;61273.97;4780402;30;20379;-67
2023/01/07 06:43:27;;;;;;;11.70;6.38;;;;;;;-145.63;100.00;61273.97;4780130;30;20024;-66
2023/01/07 06:45:52;;;;;;;11.50;6.30;;;;;;;-145.63;100.00;61273.97;4780155;30;20082;-63
2023/01/07 06:48:18;;;;;;;12.23;6.05;;;;;;;-145.63;100.00;61273.97;4779894;30;20024;-64
2023/01/07 06:50:45;;;;;;;12.82;6.50;;;;;;;-145.63;100.00;61273.97;4780018;30;20031;-67
2023/01/07 06:53:10;;;;;;;12.05;6.88;;;;;;;-145.63;100.00;61273.97;4779833;30;20032;-64
2023/01/07 06:55:36;;;;;;;11.70;7.00;;;;;;;-145.63;100.00;61273.97;4780282;30;20202;-65
2023/01/07 06:58:01;;;;;;;13.38;7.10;;;;;;;-145.63;100.00;61273.97;4779990;30;20035;-65
2023/01/07 07:00:27;;;;;;;11.25;6.45;;;;;;;-145.63;100.00;61273.97;4779770;30;20036;-64
2023/01/07 07:02:53;;;;;;;10.73;6.18;;;;;;;-145.63;100.00;61273.97;4786526;30;20091;-65
2023/01/07 07:05:19;;;;;;;13.57;6.80;;;;;;;-145.63;100.00;61273.97;4779767;30;20099;-64
2023/01/07 07:07:44;;;;;;;14.10;6.88;;;;;;;-145.63;100.00;61273.97;4779765;30;20118;-65
2023/01/07 07:10:10;;;;;;;16.70;6.75;;;;;;;-145.63;100.00;61273.97;4779716;30;20042;-64
2023/01/07 07:12:37;;;;;;;13.65;6.72;;;;;;;-145.63;100.00;61273.97;4779682;30;20083;-65
2023/01/07 07:15:04;;;;;;;11.73;6.72;;;;;;;-145.63;100.00;61273.97;4779731;30;20050;-64
2023/01/07 07:17:30;;;;;;;16.08;7.18;;;;;;;-145.63;100.00;61273.97;4779921;30;20320;-64
2023/01/07 07:19:56;;;;;;;10.38;6.55;;;;;;;-145.63;100.00;61273.97;4780270;30;20327;-65
2023/01/07 07:22:22;;;;;;;12.50;6.07;;;;;;;-145.63;100.00;61273.97;4784108;30;20055;-66
2023/01/07 07:24:47;;;;;;;15.48;6.85;;;;;;;-145.63;100.00;61273.97;4785301;29;20038;-64
2023/01/07 07:27:13;;;;;;;13.32;7.15;;;;;;;-145.63;100.00;61273.97;4779687;30;20032;-64
2023/01/07 07:29:39;;;;;;;14.10;7.10;;;;;;;-145.63;100.00;61273.97;4782931;30;20184;-64
2023/01/07 07:32:04;;;;;;;15.57;7.80;;;;;;;-145.63;100.00;61273.97;4786755;30;20031;-65
2023/01/07 07:34:30;;;;;;;11.95;6.65;;;;;;;-145.63;100.00;61273.97;4787178;30;20568;-65
2023/01/07 07:36:55;;;;;;;12.73;7.00;;;;;;;-145.63;100.00;61273.97;4783487;30;20028;-65
2023/01/07 07:39:21;;;;;;;12.40;7.03;;;;;;;-145.63;100.00;61273.97;4779390;30;20055;-64
2023/01/07 07:41:47;;;;;;;21.35;10.65;;;;;;;-145.63;100.00;61273.97;4779510;30;20044;-65
2023/01/07 07:44:12;;;;;;;14.18;7.28;;;;;;;-145.63;100.00;61273.97;4779351;30;20032;-65
2023/01/07 07:46:38;;;;;;;12.70;6.82;;;;;;;-145.63;100.00;61273.97;4779715;30;20045;-65
2023/01/07 07:49:04;;;;;;;11.73;6.50;;;;;;;-145.63;100.00;61273.97;4779176;30;20052;-66
2023/01/07 07:51:31;;;;;;;13.15;6.90;;;;;;;-145.63;100.00;61273.97;4787816;30;20035;-65
2023/01/07 07:53:56;;;;;;;13.25;7.53;;;;;;;-145.63;100.00;61273.97;4791321;29;20046;-65
2023/01/07 07:56:22;;;;;;;11.32;6.13;;;;;;;-145.63;100.00;61273.97;4786914;30;20023;-65
2023/01/07 07:58:47;;;;;;;15.65;9.50;;;;;;;-145.63;100.00;61273.97;4788303;30;20032;-63
2023/01/07 08:01:13;;;;;;;12.00;7.13;;;;;;;-145.63;100.00;61273.97;4788703;30;20312;-65
2023/01/07 08:03:38;;;;;;;15.50;7.00;;;;;;;-145.63;100.00;61273.97;4788979;30;20028;-64
2023/01/07 08:06:04;;;;;;;14.18;7.45;;;;;;;-145.63;100.00;61273.97;4788910;29;20316;-63
2023/01/07 08:08:30;;;;;;;11.88;6.78;;;;;;;-145.63;100.00;61273.97;4780470;29;20051;-63
2023/01/07 08:10:56;;;;;;;10.68;6.63;;;;;;;-145.63;100.00;61273.97;4779435;30;20047;-65
2023/01/07 08:13:22;;;;;;;15.98;7.25;;;;;;;-145.63;100.00;61273.97;4782587;30;20027;-65
2023/01/07 08:15:47;;;;;;;12.07;6.75;;;;;;;-145.63;100.00;61273.97;4793016;29;20076;-65
2023/01/07 08:18:13;;;;;;;12.68;6.53;;;;;;;-145.63;100.00;61273.97;4792105;30;20065;-65
2023/01/07 08:20:39;;;;;;;14.52;6.55;;;;;;;-145.63;100.00;61273.97;4788130;30;20071;-65
2023/01/07 08:23:06;;;;;;;14.00;6.78;;;;;;;-145.63;100.00;61273.97;4792499;30;20035;-65
2023/01/07 08:25:33;;;;;;;11.77;6.72;;;;;;;-145.63;100.00;61273.97;4783079;29;20132;-64
2023/01/07 08:28:00;;;;;;;12.57;6.53;;;;;;;-145.63;100.00;61273.97;4782599;30;20169;-65
2023/01/07 08:30:26;;;;;;;13.88;7.40;;;;;;;-145.63;100.00;61273.97;4781623;30;20035;-65
2023/01/07 08:32:52;;;;;;;12.60;7.30;;;;;;;-145.63;100.00;61273.97;4781998;30;20043;-65
2023/01/07 08:35:18;;;;;;;9.75;6.82;;;;;;;-145.63;100.00;61273.97;4782205;30;20043;-64
2023/01/07 08:37:44;;;;;;;13.00;6.43;;;;;;;-145.63;100.00;61273.97;4780997;30;20077;-65
2023/01/07 08:40:11;;;;;;;13.10;6.88;;;;;;;-145.63;100.00;61273.97;4794146;30;20088;-65
2023/01/07 08:42:37;;;;;;;11.35;6.35;;;;;;;-145.63;100.00;61273.97;4789837;29;20102;-65
2023/01/07 08:45:03;;;;;;;10.07;6.43;;;;;;;-145.63;100.00;61273.97;4782530;30;20099;-65
2023/01/07 08:47:30;;;;;;;12.70;6.38;;;;;;;-145.63;100.00;61273.97;4782089;30;20046;-65
2023/01/07 08:49:56;;;;;;;11.27;6.93;;;;;;;-145.63;100.00;61273.97;4782214;30;20055;-65
2023/01/07 08:52:23;;;;;;;13.43;6.68;;;;;;;-145.63;100.00;61273.97;4781994;30;20036;-64
2023/01/07 08:54:49;;;;;;;11.68;7.53;;;;;;;-145.63;100.00;61273.97;4797961;29;20035;-64
2023/01/07 08:57:17;;;;;;;13.32;6.95;;;;;;;-145.63;100.00;61273.97;4791337;29;20051;-65
2023/01/07 08:59:42;;;;;;;11.85;7.75;;;;;;;-145.63;100.00;61273.97;4795725;30;20036;-65
2023/01/07 09:02:18;;;;;;;12.25;6.50;;;;;;;-145.63;100.00;61273.97;4782096;30;20392;-64
2023/01/07 09:04:44;;;;;;;11.75;6.82;;;;;;;-145.63;100.00;61273.97;4764051;30;20225;-64
2023/01/07 09:07:10;;;;;;;11.50;6.97;;;;;;;-145.63;100.00;61273.97;4778099;30;20036;-64
2023/01/07 09:09:36;;;;;;;12.07;7.25;;;;;;;-145.63;100.00;61273.97;4782010;30;20249;-65
2023/01/07 09:12:05;;;;;;;11.23;6.95;;;;;;;-145.63;100.00;61273.97;4781792;30;20035;-65
2023/01/07 09:14:31;;;;;;;13.30;7.22;;;;;;;-145.63;100.00;61273.97;4781721;30;20044;-65
2023/01/07 09:16:57;;;;;;;13.15;7.30;;;;;;;-145.63;100.00;61273.97;4781446;30;20232;-65
2023/01/07 09:19:23;;;;;;;12.60;7.00;;;;;;;-145.63;100.00;61273.97;4781174;30;20339;-65
2023/01/07 09:21:50;;;;;;;12.38;7.50;;;;;;;-145.63;100.00;61273.97;4781753;30;20038;-64
2023/01/07 09:24:16;;;;;;;10.60;6.57;;;;;;;-145.63;100.00;61273.97;4805667;29;20040;-65
2023/01/07 09:26:42;;;;;;;15.85;7.35;;;;;;;-145.63;100.00;61273.97;4781172;30;20043;-65
2023/01/07 09:29:08;;;;;;;14.68;7.13;;;;;;;-145.63;100.00;61273.97;4781323;30;20094;-65
2023/01/07 09:31:34;;;;;;;12.23;6.32;;;;;;;-145.63;100.00;61273.97;4781432;30;20269;-65
2023/01/07 09:33:59;;;;;;;11.40;6.15;;;;;;;-145.63;100.00;61273.97;4780198;30;20069;-65
2023/01/07 09:36:25;;;;;;;16.38;7.63;;;;;;;-145.63;100.00;61273.97;4781065;30;20088;-63
2023/01/07 09:38:52;;;;;;;10.50;5.93;;;;;;;-145.63;100.00;61273.97;4781015;30;20039;-64
2023/01/07 09:41:50;;;;;;;12.02;6.88;;;;;;;-145.63;100.00;61273.97;4781159;30;20228;-65
2023/01/07 09:44:37;;;;;;;11.43;6.95;;;;;;;-145.63;100.00;61273.97;4780688;30;20066;-64
2023/01/07 09:47:05;;;;;;;15.68;5.78;;;;;;;-145.63;100.00;61273.97;4763172;30;20048;-65
2023/01/07 09:49:33;;;;;;;14.60;6.38;;;;;;;-145.63;100.00;61273.97;4779700;30;20122;-64
2023/01/07 09:52:16;;;;;;;11.88;6.25;;;;;;;-145.63;100.00;61273.97;4781046;30;20046;-64
2023/01/07 09:54:47;;;;;;;11.50;5.95;;;;;;;-145.63;100.00;61273.97;4796154;29;20066;-65
2023/01/07 09:57:16;;;;;;;9.57;5.60;;;;;;;-145.63;100.00;61273.97;4791561;29;20055;-65
2023/01/07 09:59:42;;;;;;;12.02;7.05;;;;;;;-145.63;100.00;61273.97;4780506;30;20031;-64
2023/01/07 10:02:41;;;;;;;9.90;6.38;;;;;;;-145.63;100.00;61273.97;4780840;30;20024;-65
2023/01/07 10:05:30;;;;;;;11.32;6.53;;;;;;;-145.63;100.00;61273.97;4762040;30;20032;-65
2023/01/07 10:08:04;;;;;;;16.73;7.68;;;;;;;-145.63;100.00;61273.97;4776379;30;20056;-65
2023/01/07 10:10:41;;;;;;;13.40;7.15;;;;;;;-145.63;100.00;61273.97;4778834;30;20043;-64
2023/01/07 10:13:21;;;;;;;12.23;6.90;;;;;;;-145.63;100.00;61273.97;4780692;30;20372;-64
2023/01/07 10:15:54;;;;;;;11.85;7.05;;;;;;;-145.63;100.00;61273.97;4780660;30;20157;-65
2023/01/07 10:18:31;;;;;;;12.40;6.82;;;;;;;-145.63;100.00;61273.97;4780198;30;20036;-64
2023/01/07 10:21:02;;;;;;;11.43;6.80;;;;;;;-145.63;100.00;61273.97;4780380;30;20111;-65
2023/01/07 10:23:31;;;;;;;11.30;6.68;;;;;;;-145.63;100.00;61273.97;4791685;30;20043;-65
2023/01/07 10:26:00;;;;;;;11.40;6.55;;;;;;;-145.63;100.00;61273.97;4780654;30;20043;-65
2023/01/07 10:28:39;;;;;;;12.20;6.78;;;;;;;-145.63;100.00;61273.97;4780275;30;20054;-65
2023/01/07 10:31:08;;;;;;;14.70;6.88;;;;;;;-145.63;100.00;61273.97;4780569;30;20258;-65
2023/01/07 10:33:34;;;;;;;12.70;7.20;;;;;;;-145.63;100.00;61273.97;4779982;30;20197;-65
2023/01/07 10:36:33;;;;;;;12.27;7.10;;;;;;;-145.63;100.00;61273.97;4780310;30;20168;-65
2023/01/07 10:39:20;;;;;;;12.38;7.07;;;;;;;-145.63;100.00;61273.97;4781950;30;20035;-67
2023/01/07 10:41:49;;;;;;;11.48;7.45;;;;;;;-145.63;100.00;61273.97;4807959;29;20050;-67
2023/01/07 10:44:17;;;;;;;14.68;7.70;;;;;;;-145.63;100.00;61273.97;4789069;30;20041;-67
2023/01/07 10:47:07;;;;;;;14.13;8.32;;;;;;;-145.63;100.00;61273.97;4793773;30;20043;-65
2023/01/07 10:49:48;;;;;;;19.33;8.43;;;;;;;-145.63;100.00;61273.97;4781443;29;20062;-67
2023/01/07 10:52:25;;;;;;;;;;;;;;;-145.63;100.00;61273.97;4780517;30;20051;-65
2023/01/07 10:55:13;;;;;;;15.65;8.55;;;;;;;-145.63;100.00;61273.97;4796265;29;19976;-65
2023/01/07 10:57:39;;;;;;;15.90;7.40;;;;;;;-145.63;100.00;61273.97;4780699;30;20048;-67
2023/01/07 11:00:11;;;;;;;15.10;8.05;;;;;;;-145.63;100.00;61273.97;4780120;30;20045;-65
2023/01/07 11:02:41;;;;;;;16.77;8.05;;;;;;;-145.63;100.00;61273.97;4778820;30;20031;-67
2023/01/07 11:05:10;;;;;;;15.70;8.50;;;;;;;-145.63;100.00;61273.97;4779967;30;20215;-67
2023/01/07 11:08:00;;;;;;;12.55;7.68;;;;;;;-145.63;100.00;61273.97;4779957;30;20324;-65
2023/01/07 11:10:31;;;;;;;13.65;7.85;;;;;;;-145.63;100.00;61273.97;4779727;30;20271;-67
2023/01/07 11:12:57;;;;;;;17.05;8.55;;;;;;;-145.63;100.00;61273.97;4779945;30;20046;-68